createdAt,value
2023-04-02T00:00:00.548Z,3.2
2023-04-02T00:04:00.554Z,3.1
2023-04-02T00:08:00.551Z,3.1
2023-04-02T00:12:00.570Z,3.1
2023-04-02T00:16:00.629Z,3.1
2023-04-02T00:20:00.544Z,3.1
2023-04-02T00:24:00.563Z,3.1
2023-04-02T00:28:00.540Z,3.0
2023-04-02T00:32:00.587Z,3.0
2023-04-02T00:36:00.615Z,3.0
2023-04-02T00:40:00.515Z,3.0
2023-04-02T00:44:00.558Z,3.0
2023-04-02T00:48:00.578Z,3.0
2023-04-02T00:52:00.559Z,3.0
2023-04-02T00:56:00.563Z,3.0
2023-04-02T01:00:00.548Z,3.0
2023-04-02T01:04:00.554Z,3.0
2023-04-02T01:08:00.565Z,3.0
2023-04-02T01:12:00.547Z,3.0
2023-04-02T01:16:00.598Z,3.0
2023-04-02T01:20:00.549Z,3.0
2023-04-02T01:24:00.540Z,3.0
2023-04-02T01:28:00.556Z,3.0
2023-04-02T01:32:00.551Z,2.9
2023-04-02T01:36:00.607Z,2.9
2023-04-02T01:40:00.546Z,2.9
2023-04-02T01:44:00.528Z,2.9
2023-04-02T01:48:00.579Z,2.9
2023-04-02T01:52:00.553Z,2.9
2023-04-02T01:56:00.528Z,2.9
2023-04-02T02:00:00.537Z,2.9
2023-04-02T02:04:01.666Z,2.8
2023-04-02T02:08:00.550Z,2.8
2023-04-02T02:12:00.531Z,2.8
2023-04-02T02:16:00.568Z,2.8
2023-04-02T02:20:00.523Z,2.8
2023-04-02T02:24:00.543Z,2.8
2023-04-02T02:28:00.546Z,2.8
2023-04-02T02:32:00.591Z,2.8
2023-04-02T02:36:00.710Z,2.8
2023-04-02T02:40:00.539Z,2.8
2023-04-02T02:44:00.557Z,2.7
2023-04-02T02:48:00.588Z,2.7
2023-04-02T02:52:00.523Z,2.7
2023-04-02T02:56:00.519Z,2.7
2023-04-02T03:00:00.538Z,2.7
2023-04-02T03:04:00.673Z,2.7
2023-04-02T03:08:00.539Z,2.7
2023-04-02T03:12:00.532Z,2.7
2023-04-02T03:16:00.600Z,2.7
2023-04-02T03:20:00.545Z,2.7
2023-04-02T03:24:00.547Z,2.7
2023-04-02T03:28:00.553Z,2.6
2023-04-02T03:32:00.570Z,2.6
2023-04-02T03:36:00.603Z,2.6
2023-04-02T03:40:00.588Z,2.6
2023-04-02T03:44:00.581Z,2.6
2023-04-02T03:48:00.638Z,2.7
2023-04-02T03:52:00.548Z,2.7
2023-04-02T03:56:00.562Z,2.7
2023-04-02T04:00:00.588Z,2.7
2023-04-02T04:04:00.609Z,2.7
2023-04-02T04:08:00.545Z,2.8
2023-04-02T04:12:00.556Z,2.8
2023-04-02T04:16:00.552Z,2.7
2023-04-02T04:20:00.544Z,2.7
2023-04-02T04:24:00.540Z,2.7
2023-04-02T04:28:00.542Z,2.7
2023-04-02T04:32:00.636Z,2.7
2023-04-02T04:36:00.675Z,2.7
2023-04-02T04:40:00.545Z,2.7
2023-04-02T04:44:00.559Z,2.7
2023-04-02T04:48:00.657Z,2.7
2023-04-02T04:52:00.549Z,2.7
2023-04-02T04:56:16.126Z,2.7
2023-04-02T05:00:00.563Z,2.7
2023-04-02T05:04:00.537Z,2.8
2023-04-02T05:08:00.557Z,2.8
2023-04-02T05:12:00.554Z,2.8
2023-04-02T05:16:01.396Z,2.8
2023-04-02T05:20:00.556Z,2.8
2023-04-02T05:24:00.581Z,2.8
2023-04-02T05:28:00.567Z,2.9
2023-04-02T05:32:00.528Z,2.9
2023-04-02T05:36:00.622Z,2.9
2023-04-02T05:40:00.552Z,2.9
2023-04-02T05:44:00.544Z,2.9
2023-04-02T05:48:00.615Z,2.9
2023-04-02T05:52:00.535Z,3.0
2023-04-02T05:56:00.549Z,3.0
2023-04-02T06:00:00.579Z,3.0
2023-04-02T06:04:00.649Z,3.0
2023-04-02T06:08:00.556Z,3.1
2023-04-02T06:12:00.552Z,3.1
2023-04-02T06:16:00.570Z,3.2
2023-04-02T06:20:00.569Z,3.2
2023-04-02T06:24:00.537Z,3.4
2023-04-02T06:28:00.544Z,3.4
2023-04-02T06:32:00.551Z,3.4
2023-04-02T06:36:00.597Z,3.6
2023-04-02T06:40:00.565Z,3.6
2023-04-02T06:44:00.525Z,3.5
2023-04-02T06:48:00.573Z,3.5
2023-04-02T06:52:00.546Z,3.5
2023-04-02T06:56:00.559Z,3.5
2023-04-02T07:00:00.564Z,3.6
2023-04-02T07:04:00.548Z,3.5
2023-04-02T07:08:00.554Z,3.6
2023-04-02T07:12:00.549Z,3.6
2023-04-02T07:16:00.571Z,3.8
2023-04-02T07:20:00.543Z,4.1
2023-04-02T07:24:00.538Z,4.1
2023-04-02T07:28:00.559Z,4.0
2023-04-02T07:32:00.542Z,4.0
2023-04-02T07:36:00.554Z,3.9
2023-04-02T07:40:00.561Z,4.0
2023-04-02T07:44:00.541Z,4.2
2023-04-02T07:48:00.567Z,4.4
2023-04-02T07:52:00.556Z,4.7
2023-04-02T07:56:00.544Z,5.1
2023-04-02T08:00:00.550Z,5.1
2023-04-02T08:04:00.562Z,5.6
2023-04-02T08:08:00.583Z,6.3
2023-04-02T08:12:00.539Z,5.6
2023-04-02T08:16:00.537Z,6.2
2023-04-02T08:20:00.554Z,8.6
2023-04-02T08:24:00.552Z,10.2
2023-04-02T08:28:00.562Z,9.2
2023-04-02T08:32:00.550Z,7.5
2023-04-02T08:36:00.570Z,6.8
2023-04-02T08:40:00.559Z,7.0
2023-04-02T08:44:00.571Z,7.8
2023-04-02T08:48:00.591Z,6.7
2023-04-02T08:52:00.555Z,6.5
2023-04-02T08:56:00.551Z,5.8
2023-04-02T09:00:00.537Z,6.0
2023-04-02T09:04:00.549Z,7.1
2023-04-02T09:08:00.554Z,6.6
2023-04-02T09:12:00.552Z,7.0
2023-04-02T09:16:00.585Z,6.4
2023-04-02T09:20:00.552Z,6.6
2023-04-02T09:24:00.555Z,6.3
2023-04-02T09:28:00.581Z,6.1
2023-04-02T09:32:00.741Z,5.8
2023-04-02T09:36:00.576Z,5.7
2023-04-02T09:40:00.546Z,5.5
2023-04-02T09:44:00.565Z,5.5
2023-04-02T09:48:00.595Z,5.3
2023-04-02T09:52:00.541Z,5.4
2023-04-02T09:56:00.547Z,5.6
2023-04-02T10:00:00.546Z,5.6
2023-04-02T10:04:00.582Z,5.8
2023-04-02T10:08:00.548Z,6.3
2023-04-02T10:12:00.637Z,6.5
2023-04-02T10:16:00.576Z,6.6
2023-04-02T10:20:00.556Z,6.7
2023-04-02T10:24:00.539Z,6.7
2023-04-02T10:28:00.531Z,7.1
2023-04-02T10:32:00.560Z,6.7
2023-04-02T10:36:00.588Z,6.8
2023-04-02T10:40:00.538Z,6.8
2023-04-02T10:44:12.726Z,6.6
2023-04-02T10:48:00.564Z,6.5
2023-04-02T10:52:00.569Z,6.9
2023-04-02T10:56:00.614Z,7.1
2023-04-02T11:00:00.533Z,6.7
2023-04-02T11:04:00.596Z,6.8
2023-04-02T11:08:00.557Z,6.7
2023-04-02T11:12:00.523Z,6.6
2023-04-02T11:16:00.581Z,6.3
2023-04-02T11:20:00.535Z,6.2
2023-04-02T11:24:00.562Z,6.2
2023-04-02T11:28:00.537Z,6.3
2023-04-02T11:32:00.581Z,6.4
2023-04-02T11:36:00.597Z,6.5
2023-04-02T11:40:00.610Z,6.5
2023-04-02T11:44:00.534Z,6.4
2023-04-02T11:48:00.830Z,6.6
2023-04-02T11:52:11.409Z,6.4
2023-04-02T11:56:00.546Z,6.3
2023-04-02T12:00:00.581Z,6.3
2023-04-02T12:04:00.537Z,6.6
2023-04-02T12:08:00.556Z,6.6
2023-04-02T12:12:00.551Z,6.7
2023-04-02T12:16:00.560Z,6.8
2023-04-02T12:20:00.535Z,7.1
2023-04-02T12:24:00.567Z,7.5
2023-04-02T12:28:00.526Z,7.7
2023-04-02T12:32:00.558Z,7.5
2023-04-02T12:36:00.584Z,7.6
2023-04-02T12:40:00.566Z,8.0
2023-04-02T12:44:00.577Z,8.5
2023-04-02T12:48:00.667Z,8.8
2023-04-02T12:52:00.530Z,8.2
2023-04-02T12:56:00.541Z,8.0
2023-04-02T13:00:00.558Z,8.0
2023-04-02T13:04:00.613Z,8.3
2023-04-02T13:08:00.606Z,8.3
2023-04-02T13:12:00.522Z,9.5
2023-04-02T13:16:00.599Z,9.4
2023-04-02T13:20:00.543Z,10.9
2023-04-02T13:24:00.524Z,12.0
2023-04-02T13:28:00.611Z,9.8
2023-04-02T13:32:00.614Z,9.4
2023-04-02T13:36:00.656Z,9.2
2023-04-02T13:40:00.548Z,8.9
2023-04-02T13:44:00.539Z,9.0
2023-04-02T13:48:00.657Z,10.8
2023-04-02T13:52:00.636Z,10.2
2023-04-02T13:56:00.528Z,9.2
2023-04-02T14:00:00.561Z,8.9
2023-04-02T14:04:00.564Z,8.6
2023-04-02T14:08:00.566Z,8.4
2023-04-02T14:12:00.538Z,10.5
2023-04-02T14:16:00.558Z,9.1
2023-04-02T14:20:00.536Z,9.0
2023-04-02T14:24:00.549Z,8.4
2023-04-02T14:28:00.531Z,8.1
2023-04-02T14:32:00.552Z,8.1
2023-04-02T14:36:00.598Z,8.1
2023-04-02T14:40:00.582Z,9.0
2023-04-02T14:44:00.541Z,8.3
2023-04-02T14:48:00.692Z,8.3
2023-04-02T14:52:02.570Z,8.2
2023-04-02T14:56:00.537Z,8.6
2023-04-02T15:00:00.659Z,8.2
2023-04-02T15:04:00.638Z,7.8
2023-04-02T15:08:00.565Z,7.8
2023-04-02T15:12:00.543Z,7.9
2023-04-02T15:16:00.563Z,8.1
2023-04-02T15:20:00.557Z,7.8
2023-04-02T15:24:00.554Z,7.9
2023-04-02T15:28:00.551Z,8.3
2023-04-02T15:32:00.600Z,7.9
2023-04-02T15:36:00.550Z,7.6
2023-04-02T15:40:00.567Z,7.6
2023-04-02T15:44:00.545Z,7.9
2023-04-02T15:48:00.624Z,7.9
2023-04-02T15:52:00.551Z,7.4
2023-04-02T15:56:00.552Z,7.0
2023-04-02T16:00:00.534Z,6.7
2023-04-02T16:04:00.595Z,6.5
2023-04-02T16:08:00.552Z,6.5
2023-04-02T16:12:00.571Z,6.5
2023-04-02T16:16:00.551Z,6.3
2023-04-02T16:20:00.565Z,6.2
2023-04-02T16:24:00.553Z,6.1
2023-04-02T16:28:00.560Z,6.2
2023-04-02T16:32:00.543Z,6.1
2023-04-02T16:36:00.571Z,6.2
2023-04-02T16:40:00.557Z,6.2
2023-04-02T16:44:00.575Z,6.2
2023-04-02T16:48:00.610Z,6.1
2023-04-02T16:52:00.542Z,5.9
2023-04-02T16:56:00.565Z,5.8
2023-04-02T17:00:00.561Z,5.7
2023-04-02T17:04:00.752Z,5.6
2023-04-02T17:08:00.574Z,5.6
2023-04-02T17:12:00.540Z,5.4
2023-04-02T17:16:00.636Z,5.2
2023-04-02T17:20:00.555Z,5.1
2023-04-02T17:24:00.540Z,5.0
2023-04-02T17:28:00.542Z,4.9
2023-04-02T17:32:01.752Z,4.9
2023-04-02T17:36:00.607Z,4.7
2023-04-02T17:40:00.568Z,4.6
2023-04-02T17:44:00.558Z,4.6
2023-04-02T17:48:00.562Z,4.6
2023-04-02T17:52:00.542Z,4.4
2023-04-02T17:56:00.568Z,4.3
2023-04-02T18:00:00.551Z,4.4
2023-04-02T18:04:00.543Z,4.2
2023-04-02T18:08:00.552Z,4.0
2023-04-02T18:12:01.699Z,4.0
2023-04-02T18:16:00.550Z,3.8
2023-04-02T18:20:00.559Z,3.7
2023-04-02T18:24:00.554Z,3.7
2023-04-02T18:28:00.567Z,3.6
2023-04-02T18:32:00.530Z,3.5
2023-04-02T18:36:00.613Z,3.6
2023-04-02T18:40:00.541Z,3.6
2023-04-02T18:44:00.555Z,3.5
2023-04-02T18:48:00.569Z,3.5
2023-04-02T18:52:00.540Z,3.4
2023-04-02T18:56:00.568Z,3.4
2023-04-02T19:00:00.556Z,3.3
2023-04-02T19:04:00.709Z,3.2
2023-04-02T19:08:00.553Z,3.2
2023-04-02T19:12:00.559Z,3.2
2023-04-02T19:16:00.563Z,3.1
2023-04-02T19:20:00.550Z,3.1
2023-04-02T19:24:00.554Z,3.2
2023-04-02T19:28:00.554Z,3.0
2023-04-02T19:32:00.594Z,3.0
2023-04-02T19:36:00.542Z,2.9
2023-04-02T19:40:00.544Z,2.9
2023-04-02T19:44:00.549Z,2.9
2023-04-02T19:48:00.571Z,2.7
2023-04-02T19:52:00.561Z,2.7
2023-04-02T19:56:00.555Z,2.8
2023-04-02T20:00:00.568Z,2.7
2023-04-02T20:04:00.570Z,2.5
2023-04-02T20:08:00.561Z,2.4
2023-04-02T20:12:00.556Z,2.5
2023-04-02T20:16:00.583Z,2.4
2023-04-02T20:20:00.550Z,2.4
2023-04-02T20:24:00.545Z,2.3
2023-04-02T20:28:00.583Z,2.3
2023-04-02T20:32:00.529Z,2.2
2023-04-02T20:36:00.558Z,2.2
2023-04-02T20:40:00.554Z,2.0
2023-04-02T20:44:00.559Z,2.1
2023-04-02T20:48:00.602Z,2.0
2023-04-02T20:52:00.589Z,1.9
2023-04-02T20:56:00.536Z,1.8
2023-04-02T21:00:00.576Z,1.8
2023-04-02T21:04:00.594Z,1.6
2023-04-02T21:08:00.565Z,1.7
2023-04-02T21:12:00.559Z,1.6
2023-04-02T21:16:00.585Z,1.5
2023-04-02T21:20:00.570Z,1.3
2023-04-02T21:24:00.529Z,1.3
2023-04-02T21:28:00.558Z,1.2
2023-04-02T21:32:05.557Z,1.2
2023-04-02T21:36:00.572Z,1.1
2023-04-02T21:40:00.539Z,1.1
2023-04-02T21:44:00.535Z,1.1
2023-04-02T21:48:00.568Z,0.9
2023-04-02T21:52:00.577Z,0.9
2023-04-02T21:56:00.547Z,0.9
2023-04-02T22:00:00.545Z,0.9
2023-04-02T22:04:00.588Z,0.8
2023-04-02T22:08:00.568Z,0.7
2023-04-02T22:12:00.581Z,0.7
2023-04-02T22:16:00.545Z,0.7
2023-04-02T22:20:00.550Z,0.7
2023-04-02T22:24:00.578Z,0.6
2023-04-02T22:28:00.604Z,0.6
2023-04-02T22:32:00.605Z,0.6
2023-04-02T22:36:00.668Z,0.6
2023-04-02T22:40:00.527Z,0.6
2023-04-02T22:44:00.551Z,0.5
2023-04-02T22:48:00.601Z,0.4
2023-04-02T22:52:00.545Z,0.3
2023-04-02T22:56:00.547Z,0.3
2023-04-02T23:00:00.539Z,0.3
2023-04-02T23:04:00.566Z,0.3
2023-04-02T23:08:00.537Z,0.4
2023-04-02T23:12:00.562Z,0.4
2023-04-02T23:16:00.561Z,0.5
2023-04-02T23:20:00.558Z,0.5
2023-04-02T23:24:00.555Z,0.5
2023-04-02T23:28:00.580Z,0.6
2023-04-02T23:32:00.535Z,0.5
2023-04-02T23:36:00.566Z,0.3
2023-04-02T23:40:00.555Z,0.3
2023-04-02T23:44:00.586Z,0.5
2023-04-02T23:48:00.638Z,0.5
2023-04-02T23:52:00.554Z,0.6
2023-04-02T23:56:00.543Z,0.6
